Página principal
METAR-TAF:

METAR-TAF

Aeroportos :

Havana, Cuba

Aeroporto Internacional José Martí

latitude: 22-59N, longitude: 082-24W, altura: 59 m

Observação actual do tempo

O boletim foi feito há 59 minutos, às 07:55 UTC
Vento 3 kt de es-nordeste
Temperatura 16°C
Humidade 88%
Pressão 1020 hPa
Visibilidade: 9000 m
Nuvens fragmentadasa uma altura de 18000 ft

METAR: MUHA 200755Z 06003KT 9000 BKN180 16/14 Q1020

Hora: 03:54 (08:54 UTC)

Previsão

O boletim foi feito há 3 horas e 54 minutos, às 05:00 UTC
Previsão válida de 20 às 06 UTC a 21 às 06 UTC
Vento 3 kt com direcção variável
Visibilidade: 9000 m
Poucas nuvensa uma altura de 2000 ft
Tornando-se
de 20 às 13 UTC a 20 às 15 UTC
Vento 13 kt de nordeste
Tornando-se
de 21 às 02 UTC a 21 às 04 UTC
Vento 8 kt de este

TAF: MUHA 200500Z 2006/2106 VRB03KT 9000 FEW020 BECMG 2013/2015 04013KT BECMG 2102/2104 08008KT

Observações e previsões do tempo de mais de 4000 aeroportos (mensagens METAR e TAF).

As estações disponíveis são os pontos amarelos e vermelhos sobre o mapa.

Mova o rato sobre o mapa para ver o nome da estação.

Depois clique no ponto para visualizar as observações e previsões meteorológicas.

Para alterar o mapa : clique nos botões verdes com uma cruz preta para aumentar o zoom; no botão verde com uma pitada de zoom; ou nas setas verdes para mapas adjacentes.


METAR-TAF: